Time;durP1;ratioP1;P1;durP2;ratioP2;P2;SDS_P1;SDS_P2;PMS_P1;PMS_P2;Temp;Humidity;BMP_temperature;BMP_pressure;BME280_temperature;BME280_humidity;BME280_pressure;Samples;Min_cycle;Max_cycle;Signal;HPM_P1;HPM_P2
2022/07/25 00:00:24;;;;;;;8.60;4.32;;;;;;;25.82;44.69;99443.19;4995818;28;20050;-65
2022/07/25 00:02:51;;;;;;;4.57;3.55;;;;;;;25.81;44.31;99436.13;5013490;28;20061;-65
2022/07/25 00:05:19;;;;;;;7.70;3.85;;;;;;;25.78;44.89;99433.81;5013231;28;20538;-65
2022/07/25 00:07:45;;;;;;;5.03;3.17;;;;;;;25.76;44.53;99430.50;5013017;28;20477;-66
2022/07/25 00:10:12;;;;;;;3.80;3.50;;;;;;;25.73;44.73;99429.03;5012887;28;20108;-66
2022/07/25 00:12:39;;;;;;;3.55;3.25;;;;;;;25.70;44.98;99420.47;5013309;28;20049;-65
2022/07/25 00:15:06;;;;;;;4.93;3.40;;;;;;;25.68;44.93;99415.28;5013282;28;20046;-64
2022/07/25 00:17:32;;;;;;;4.85;3.47;;;;;;;25.67;44.75;99404.72;5013198;28;20639;-66
2022/07/25 00:19:59;;;;;;;3.90;3.50;;;;;;;25.65;44.78;99413.00;5012830;28;20049;-65
2022/07/25 00:22:26;;;;;;;4.03;3.63;;;;;;;25.63;44.79;99410.50;4995743;28;20053;-65
2022/07/25 00:24:53;;;;;;;3.85;3.45;;;;;;;25.61;44.52;99401.75;5012888;28;20572;-65
2022/07/25 00:27:19;;;;;;;4.93;4.05;;;;;;;25.60;45.38;99392.00;5013021;28;20069;-65
2022/07/25 00:29:46;;;;;;;3.80;3.50;;;;;;;25.59;44.39;99389.50;5012449;28;20060;-66
2022/07/25 00:32:12;;;;;;;4.35;3.60;;;;;;;25.57;45.27;99384.31;5012847;28;20050;-65
2022/07/25 00:34:39;;;;;;;4.80;2.92;;;;;;;25.55;45.11;99388.19;5012702;28;20107;-65
2022/07/25 00:37:05;;;;;;;6.20;3.70;;;;;;;25.53;45.20;99380.31;5013050;28;20105;-66
2022/07/25 00:39:32;;;;;;;3.75;3.33;;;;;;;25.50;45.26;99375.31;5012478;28;20073;-66
2022/07/25 00:42:02;;;;;;;5.40;3.40;;;;;;;25.46;45.20;99376.75;5012552;28;20046;-64
2022/07/25 00:44:30;;;;;;;5.07;3.72;;;;;;;25.42;45.43;99367.38;5012541;28;20659;-64
2022/07/25 00:46:58;;;;;;;4.93;3.70;;;;;;;25.40;45.19;99372.13;4995089;28;20046;-65
2022/07/25 00:49:25;;;;;;;4.63;3.60;;;;;;;25.37;45.44;99371.50;4994578;28;20108;-65
2022/07/25 00:51:53;;;;;;;4.03;3.63;;;;;;;25.36;44.97;99374.38;5012585;28;20120;-64
2022/07/25 00:54:20;;;;;;;5.22;3.63;;;;;;;25.35;45.10;99364.63;5012712;28;20425;-67
2022/07/25 00:56:48;;;;;;;4.15;3.75;;;;;;;25.33;44.82;99364.81;4994481;28;20096;-66
2022/07/25 00:59:15;;;;;;;5.30;3.50;;;;;;;25.33;45.56;99370.22;5012347;28;20061;-65
2022/07/25 01:01:44;;;;;;;6.05;3.70;;;;;;;25.32;45.11;99365.00;4994953;28;20510;-64
2022/07/25 01:04:11;;;;;;;5.07;3.75;;;;;;;25.30;45.25;99365.22;5012526;28;20050;-65
2022/07/25 01:06:37;;;;;;;4.30;3.88;;;;;;;25.29;45.32;99368.09;5012427;28;20054;-64
2022/07/25 01:09:04;;;;;;;4.00;3.60;;;;;;;25.27;46.03;99360.22;5012056;28;20112;-64
2022/07/25 01:11:31;;;;;;;5.60;3.30;;;;;;;25.26;45.60;99366.63;5012165;28;20061;-66
2022/07/25 01:13:57;;;;;;;3.63;3.33;;;;;;;25.27;45.43;99362.06;5012379;28;20057;-65
2022/07/25 01:22:10;;;;;;;5.03;3.63;;;;;;;25.24;45.35;99361.41;4981492;23;20046;-65
2022/07/25 01:24:38;;;;;;;5.25;4.00;;;;;;;25.21;44.99;99358.28;5004659;28;20054;-66
2022/07/25 01:27:04;;;;;;;3.92;3.63;;;;;;;25.21;44.86;99361.84;4994161;28;20050;-64
2022/07/25 01:29:31;;;;;;;4.00;3.70;;;;;;;25.21;44.98;99360.97;5011652;28;20495;-66
2022/07/25 01:31:57;;;;;;;5.13;4.10;;;;;;;25.21;44.72;99358.28;5011812;28;20448;-65
2022/07/25 01:34:24;;;;;;;7.00;4.10;;;;;;;25.22;44.35;99355.41;5011758;28;20057;-64
2022/07/25 01:36:50;;;;;;;6.47;4.00;;;;;;;25.23;44.15;99354.38;5011515;28;20053;-64
2022/07/25 01:39:17;;;;;;;3.88;3.55;;;;;;;25.27;44.70;99348.59;5011476;28;20061;-68
2022/07/25 01:41:44;;;;;;;5.22;3.80;;;;;;;25.29;44.54;99352.78;5011679;28;20065;-64
2022/07/25 01:44:10;;;;;;;4.55;4.10;;;;;;;25.29;44.62;99352.78;5012035;28;20054;-64
2022/07/25 01:46:37;;;;;;;5.22;4.50;;;;;;;25.30;44.51;99351.72;5011337;28;20587;-64
2022/07/25 01:49:04;;;;;;;5.50;4.43;;;;;;;25.31;44.51;99334.53;5011462;28;20046;-65
2022/07/25 01:51:30;;;;;;;4.68;4.25;;;;;;;25.30;44.46;99332.88;5011083;28;20041;-62
2022/07/25 01:53:57;;;;;;;4.75;4.15;;;;;;;25.31;44.12;99342.63;5011290;28;20050;-62
2022/07/25 01:56:25;;;;;;;4.82;4.43;;;;;;;25.29;44.06;99325.84;5011213;28;20136;-62
2022/07/25 01:58:53;;;;;;;6.18;4.07;;;;;;;25.30;44.10;99326.69;5011093;28;20057;-64
2022/07/25 02:01:20;;;;;;;5.32;4.75;;;;;;;25.28;43.69;99326.88;5011463;28;20054;-62
2022/07/25 02:03:48;;;;;;;5.78;4.68;;;;;;;25.28;44.01;99320.63;5010987;28;20528;-62
2022/07/25 02:06:16;;;;;;;5.22;4.22;;;;;;;25.26;43.73;99317.31;5011195;28;20421;-62
2022/07/25 02:08:43;;;;;;;4.63;4.22;;;;;;;25.25;43.66;99319.16;5009974;28;20050;-62
2022/07/25 02:11:10;;;;;;;4.80;4.40;;;;;;;25.25;43.61;99319.16;5011381;28;20050;-62
2022/07/25 02:13:36;;;;;;;6.50;5.07;;;;;;;25.24;43.69;99317.50;5010900;28;20058;-62
2022/07/25 02:16:03;;;;;;;4.88;4.30;;;;;;;25.24;43.24;99317.50;5011175;28;20137;-66
2022/07/25 02:18:30;;;;;;;4.53;4.13;;;;;;;25.26;43.43;99315.44;5010385;28;20524;-64
2022/07/25 02:20:56;;;;;;;5.10;4.57;;;;;;;25.27;43.66;99311.75;5010610;28;20080;-65
2022/07/25 02:23:23;;;;;;;4.88;4.45;;;;;;;25.28;43.47;99302.63;5010458;28;20049;-64
2022/07/25 02:25:49;;;;;;;4.72;4.22;;;;;;;25.28;43.60;99294.53;5011254;28;20115;-66
2022/07/25 02:28:16;;;;;;;4.90;4.20;;;;;;;25.29;43.52;99288.13;5010229;28;20096;-64
2022/07/25 02:30:43;;;;;;;6.47;4.72;;;;;;;25.30;43.46;99291.66;5010711;28;20080;-65
2022/07/25 02:33:09;;;;;;;6.38;5.05;;;;;;;25.29;42.98;99288.13;5010374;28;20050;-65
2022/07/25 02:35:36;;;;;;;5.38;4.55;;;;;;;25.29;42.98;99290.81;5010511;28;20073;-65
2022/07/25 02:38:02;;;;;;;5.47;4.53;;;;;;;25.29;43.24;99282.72;5010245;28;20548;-66
2022/07/25 02:40:29;;;;;;;4.53;4.13;;;;;;;25.28;43.33;99273.00;5010634;28;20112;-66
2022/07/25 02:42:56;;;;;;;4.47;4.07;;;;;;;25.28;42.99;99282.94;5010410;28;20054;-64
2022/07/25 02:45:22;;;;;;;5.18;4.32;;;;;;;25.27;43.14;99279.41;5010650;28;20053;-64
2022/07/25 02:47:49;;;;;;;5.03;4.50;;;;;;;25.27;43.12;99275.88;5010538;28;20119;-65
2022/07/25 02:50:16;;;;;;;4.82;4.25;;;;;;;25.26;42.91;99269.66;5009889;28;20054;-65
2022/07/25 02:52:43;;;;;;;8.70;5.32;;;;;;;25.24;43.10;99267.16;5010216;28;20045;-65
2022/07/25 02:55:10;;;;;;;4.55;4.15;;;;;;;25.24;42.79;99260.94;5010191;28;20057;-65
2022/07/25 02:57:37;;;;;;;4.95;4.53;;;;;;;25.24;42.86;99269.03;4993011;28;20061;-66
2022/07/25 03:00:05;;;;;;;8.40;4.60;;;;;;;25.23;42.91;99261.97;5010456;28;20183;-64
2022/07/25 03:02:32;;;;;;;4.97;4.47;;;;;;;25.22;42.51;99263.00;5010403;28;20061;-64
2022/07/25 03:04:59;;;;;;;9.35;4.85;;;;;;;25.21;42.46;99262.19;5010086;28;20050;-64
2022/07/25 03:07:25;;;;;;;5.40;4.35;;;;;;;25.20;42.28;99259.69;5010808;28;20058;-65
2022/07/25 03:09:52;;;;;;;6.57;4.82;;;;;;;25.20;42.62;99256.97;5010003;28;20302;-64
2022/07/25 03:12:18;;;;;;;6.15;4.78;;;;;;;25.20;42.42;99256.97;5010435;28;20062;-62
2022/07/25 03:14:45;;;;;;;5.22;4.80;;;;;;;25.18;42.68;99254.47;5010161;28;20050;-62
2022/07/25 03:17:12;;;;;;;5.68;4.60;;;;;;;25.18;42.39;99249.09;5010396;28;20386;-62
2022/07/25 03:19:38;;;;;;;5.68;4.50;;;;;;;25.18;42.62;99250.94;5012229;28;20057;-62
2022/07/25 03:22:05;;;;;;;5.00;4.50;;;;;;;25.18;42.34;99248.25;5013866;28;20115;-61
2022/07/25 03:24:31;;;;;;;5.05;4.20;;;;;;;25.19;42.37;99244.56;5014099;28;20510;-63
2022/07/25 03:26:58;;;;;;;5.22;4.78;;;;;;;25.18;42.35;99246.41;5013501;28;20103;-62
2022/07/25 03:29:24;;;;;;;6.00;4.55;;;;;;;25.18;42.05;99248.25;5014097;28;20529;-61
2022/07/25 03:31:52;;;;;;;5.50;4.38;;;;;;;25.17;42.37;99244.75;5013523;28;20076;-62
2022/07/25 03:34:18;;;;;;;10.60;4.53;;;;;;;25.17;42.02;99241.22;5013782;28;20065;-62
2022/07/25 03:36:45;;;;;;;5.22;4.72;;;;;;;25.16;41.98;99240.38;5013677;28;20065;-61
2022/07/25 03:39:13;;;;;;;5.43;4.50;;;;;;;25.15;41.92;99236.00;5013726;28;20481;-61
2022/07/25 03:41:39;;;;;;;6.70;4.60;;;;;;;25.15;42.17;99229.81;5013218;28;20066;-61
2022/07/25 03:44:06;;;;;;;6.07;4.90;;;;;;;25.15;41.84;99227.13;5013557;28;20045;-62
2022/07/25 03:46:34;;;;;;;5.32;4.82;;;;;;;25.14;42.21;99225.44;5013151;28;20138;-61
2022/07/25 03:49:00;;;;;;;5.25;4.78;;;;;;;25.14;42.12;99220.03;5013268;28;20445;-62
2022/07/25 03:51:27;;;;;;;6.55;4.55;;;;;;;25.13;42.19;99219.22;5013200;28;20085;-63
2022/07/25 03:54:04;;;;;;;5.28;4.78;;;;;;;25.13;42.22;99218.38;4996092;28;20057;-62
2022/07/25 03:56:32;;;;;;;5.63;5.03;;;;;;;25.11;41.91;99208.66;5013647;28;20405;-62
2022/07/25 03:58:58;;;;;;;4.88;4.43;;;;;;;25.11;42.26;99208.66;5012765;28;20053;-64
2022/07/25 04:01:25;;;;;;;5.57;4.82;;;;;;;25.11;41.86;99205.13;5011625;28;20052;-62
2022/07/25 04:03:52;;;;;;;4.97;4.47;;;;;;;25.10;42.00;99198.06;5012633;28;20080;-61
2022/07/25 04:06:19;;;;;;;5.00;4.50;;;;;;;25.09;42.15;99197.22;5004913;28;20061;-63
2022/07/25 04:08:46;;;;;;;7.75;4.70;;;;;;;25.08;41.84;99192.06;5012645;28;20479;-62
2022/07/25 04:11:13;;;;;;;5.07;4.57;;;;;;;25.09;41.83;99193.72;4995631;28;20258;-62
2022/07/25 04:13:39;;;;;;;5.38;4.57;;;;;;;25.09;41.80;99191.03;4995228;28;20077;-62
2022/07/25 04:16:06;;;;;;;5.80;4.65;;;;;;;25.09;42.02;99186.47;5013267;28;20077;-62
2022/07/25 04:18:40;;;;;;;5.78;4.95;;;;;;;25.10;42.21;99190.84;5012740;28;20045;-61
2022/07/25 04:21:09;;;;;;;6.82;4.60;;;;;;;25.10;42.17;99187.31;5013157;28;20050;-63
2022/07/25 04:23:36;;;;;;;7.65;4.80;;;;;;;25.11;42.00;99186.25;5012587;28;20057;-61
2022/07/25 04:26:03;;;;;;;6.28;4.50;;;;;;;25.10;42.06;99184.59;5012924;28;20042;-62
2022/07/25 04:28:31;;;;;;;5.72;4.53;;;;;;;25.10;41.94;99179.22;4994788;28;20054;-62
2022/07/25 04:30:57;;;;;;;5.45;4.35;;;;;;;25.10;42.26;99177.38;5012355;28;20053;-62
2022/07/25 04:33:24;;;;;;;4.90;4.47;;;;;;;25.12;42.31;99177.19;5012371;28;20493;-62
2022/07/25 04:35:51;;;;;;;5.05;4.50;;;;;;;25.11;42.09;99170.94;5013138;28;20045;-62
2022/07/25 04:38:17;;;;;;;4.97;4.47;;;;;;;25.13;42.15;99164.53;5012194;28;20054;-62
2022/07/25 04:40:45;;;;;;;5.85;4.80;;;;;;;25.13;42.45;99176.16;5012631;28;20111;-62
2022/07/25 04:43:12;;;;;;;5.00;4.30;;;;;;;25.13;42.46;99170.75;5012565;28;20386;-62
2022/07/25 04:45:39;;;;;;;4.68;4.28;;;;;;;25.12;42.69;99169.09;4995461;28;20053;-62
2022/07/25 04:48:05;;;;;;;4.95;4.50;;;;;;;25.13;42.21;99167.22;5012517;28;20137;-64
2022/07/25 04:50:32;;;;;;;8.82;4.40;;;;;;;25.12;42.29;99158.34;5012090;28;20548;-62
2022/07/25 04:52:59;;;;;;;5.50;4.88;;;;;;;25.13;42.17;99167.22;5012836;28;20080;-62
2022/07/25 04:55:25;;;;;;;5.90;4.78;;;;;;;25.13;42.19;99167.22;5012145;28;20064;-62
2022/07/25 04:57:52;;;;;;;6.00;4.65;;;;;;;25.11;42.20;99159.34;5012462;28;20100;-62
2022/07/25 05:00:19;;;;;;;5.18;4.22;;;;;;;25.11;42.35;99157.50;5011929;28;20478;-62
2022/07/25 05:02:45;;;;;;;15.70;5.18;;;;;;;25.13;42.10;99153.75;5012313;28;20511;-62
2022/07/25 05:05:12;;;;;;;4.85;4.38;;;;;;;25.13;42.17;99148.38;5011719;28;20054;-63
2022/07/25 05:07:48;;;;;;;5.95;4.05;;;;;;;25.14;42.13;99153.56;5012006;28;20101;-62
2022/07/25 05:10:14;;;;;;;6.78;4.70;;;;;;;25.14;42.07;99141.94;5011542;28;20065;-62
2022/07/25 05:12:41;;;;;;;6.00;4.90;;;;;;;25.14;42.43;99142.78;5012263;28;20050;-62
2022/07/25 05:15:08;;;;;;;6.32;4.22;;;;;;;25.15;42.20;99135.56;5011892;28;20100;-62
2022/07/25 05:17:35;;;;;;;5.00;4.50;;;;;;;25.14;42.07;99140.09;5011980;28;20509;-62
2022/07/25 05:20:02;;;;;;;6.15;4.43;;;;;;;25.14;42.33;99139.25;5011351;28;20045;-74
2022/07/25 05:22:29;;;;;;;5.25;4.47;;;;;;;25.14;42.10;99139.25;4993934;28;20053;-62
2022/07/25 05:24:55;;;;;;;5.05;4.55;;;;;;;25.13;42.05;99142.97;4994267;28;20053;-62
2022/07/25 05:27:22;;;;;;;5.45;4.22;;;;;;;25.12;42.30;99139.47;5010591;28;20046;-62
2022/07/25 05:29:48;;;;;;;5.00;4.35;;;;;;;25.12;42.45;99144.88;5011229;28;20101;-64
2022/07/25 05:32:15;;;;;;;4.30;3.92;;;;;;;25.13;42.46;99137.59;5010942;28;20065;-63
2022/07/25 05:34:41;;;;;;;5.13;4.63;;;;;;;25.13;42.12;99142.97;5011588;28;20046;-61
2022/07/25 05:37:08;;;;;;;5.13;4.65;;;;;;;25.13;42.43;99138.44;5010715;28;20464;-62
2022/07/25 05:39:36;;;;;;;5.38;4.88;;;;;;;25.15;42.42;99135.56;5011328;28;20050;-62
2022/07/25 05:42:02;;;;;;;8.77;4.63;;;;;;;25.15;42.59;99128.28;5011304;28;20053;-63
2022/07/25 05:44:29;;;;;;;4.85;4.35;;;;;;;25.19;42.38;99131.44;5011612;28;20128;-62
2022/07/25 05:46:56;;;;;;;5.43;4.78;;;;;;;25.21;42.49;99126.66;5011097;28;20050;-61
2022/07/25 05:49:22;;;;;;;7.38;4.95;;;;;;;25.22;42.21;99122.94;5011055;28;20204;-62
2022/07/25 05:51:50;;;;;;;6.28;4.25;;;;;;;25.24;42.62;99120.88;5011717;28;20054;-63
2022/07/25 05:54:17;;;;;;;6.20;4.82;;;;;;;25.27;42.66;99120.50;5010887;28;20050;-63
2022/07/25 05:56:44;;;;;;;7.25;4.63;;;;;;;25.30;42.51;99109.31;5011202;28;20046;-62
2022/07/25 05:59:10;;;;;;;6.07;4.43;;;;;;;25.33;42.42;99113.47;5010731;28;20050;-61
2022/07/25 06:01:37;;;;;;;5.22;4.40;;;;;;;25.36;42.14;99105.81;5011274;28;20123;-64
2022/07/25 06:04:04;;;;;;;5.45;3.72;;;;;;;25.39;42.26;99107.28;5010668;28;20050;-62
2022/07/25 06:06:31;;;;;;;5.82;4.50;;;;;;;25.44;42.47;99107.50;5011207;28;20069;-62
2022/07/25 06:08:58;;;;;;;5.32;4.63;;;;;;;25.49;42.25;99106.91;5010578;28;20100;-61
2022/07/25 06:11:29;;;;;;;4.68;4.22;;;;;;;25.54;42.47;99106.28;5011044;28;20431;-62
2022/07/25 06:13:57;;;;;;;5.43;4.55;;;;;;;25.57;42.50;99103.22;5010634;28;20046;-61
2022/07/25 06:16:23;;;;;;;7.70;5.00;;;;;;;25.60;42.28;99103.66;5010864;28;20046;-63
2022/07/25 06:18:51;;;;;;;5.22;4.72;;;;;;;25.62;41.97;99101.59;5010314;28;20148;-63
2022/07/25 06:21:17;;;;;;;5.22;4.28;;;;;;;25.65;42.17;99100.34;4993118;28;20050;-63
2022/07/25 06:23:44;;;;;;;5.90;4.47;;;;;;;25.66;42.22;99099.31;5010747;28;20437;-62
2022/07/25 06:26:11;;;;;;;5.25;4.70;;;;;;;25.69;42.28;99103.47;5010335;28;20057;-61
2022/07/25 06:28:37;;;;;;;6.57;4.65;;;;;;;25.71;42.15;99096.84;5010348;28;20080;-63
2022/07/25 06:31:04;;;;;;;7.13;5.10;;;;;;;25.75;42.43;99099.94;5010024;28;20049;-63
2022/07/25 06:33:30;;;;;;;7.05;4.65;;;;;;;25.79;42.45;99106.59;5010208;28;20045;-61
2022/07/25 06:35:57;;;;;;;6.20;5.03;;;;;;;25.84;41.83;99101.44;5010104;28;20058;-61
2022/07/25 06:38:23;;;;;;;6.25;4.60;;;;;;;25.90;42.23;99107.88;5010796;28;20143;-66
2022/07/25 06:40:51;;;;;;;5.15;4.68;;;;;;;25.96;42.61;99101.66;5010424;28;20045;-64
2022/07/25 06:43:18;;;;;;;5.38;4.47;;;;;;;26.04;42.18;99099.81;5010783;28;20046;-64
2022/07/25 06:45:46;;;;;;;4.70;4.30;;;;;;;26.07;42.07;99089.44;5010203;28;20104;-65
2022/07/25 06:48:16;;;;;;;5.25;4.45;;;;;;;26.12;41.91;99095.03;5010416;28;20125;-66
2022/07/25 06:50:43;;;;;;;6.20;4.75;;;;;;;26.17;41.84;99093.59;5010292;28;20050;-66
2022/07/25 06:53:10;;;;;;;5.13;4.63;;;;;;;26.18;41.60;99087.16;5012102;28;20053;-66
2022/07/25 06:55:37;;;;;;;6.40;4.75;;;;;;;26.20;41.82;99087.78;4999319;28;20049;-64
2022/07/25 06:58:04;;;;;;;5.07;4.50;;;;;;;26.21;41.81;99086.75;5017051;28;20058;-65
2022/07/25 07:00:30;;;;;;;7.05;4.57;;;;;;;26.22;41.91;99083.00;5016989;28;20097;-65
2022/07/25 07:03:00;;;;;;;5.57;4.90;;;;;;;26.24;41.88;99086.34;5017167;28;20262;-64
2022/07/25 07:05:29;;;;;;;6.63;4.95;;;;;;;26.26;41.69;99082.44;5016913;28;20124;-65
2022/07/25 07:07:57;;;;;;;4.35;3.95;;;;;;;26.30;41.87;99088.22;5016773;28;20534;-62
2022/07/25 07:10:24;;;;;;;5.80;4.43;;;;;;;26.34;41.99;99088.63;5016593;28;20509;-62
2022/07/25 07:13:08;;;;;;;5.50;4.60;;;;;;;26.34;41.83;99086.78;5016369;28;20046;-62
2022/07/25 07:15:35;;;;;;;5.25;4.75;;;;;;;26.43;42.00;99082.03;5016734;28;20108;-62
2022/07/25 07:18:04;;;;;;;6.53;4.82;;;;;;;26.48;42.06;99084.06;5016504;28;20559;-66
2022/07/25 07:20:31;;;;;;;5.55;4.60;;;;;;;26.56;41.84;99086.56;5017114;28;20050;-63
2022/07/25 07:22:57;;;;;;;6.20;4.38;;;;;;;26.63;42.20;99084.69;5016916;28;20047;-62
2022/07/25 07:25:24;;;;;;;4.80;4.28;;;;;;;26.72;42.54;99079.88;5008948;28;20431;-61
2022/07/25 07:27:54;;;;;;;6.03;4.22;;;;;;;26.85;42.56;99079.03;5017000;28;20124;-62
2022/07/25 07:30:20;;;;;;;5.97;4.20;;;;;;;26.98;42.31;99074.69;5016827;28;20052;-61
2022/07/25 07:32:55;;;;;;;7.00;4.72;;;;;;;27.13;42.31;99077.94;5016440;28;20244;-64
2022/07/25 07:35:22;;;;;;;4.88;4.38;;;;;;;27.28;41.68;99077.66;5016803;28;20084;-62
2022/07/25 07:37:48;;;;;;;4.82;4.22;;;;;;;27.41;42.09;99071.41;5016414;28;20452;-61
2022/07/25 07:40:15;;;;;;;6.13;4.25;;;;;;;27.57;42.03;99070.06;5016081;28;20050;-61
2022/07/25 07:42:49;;;;;;;5.10;4.60;;;;;;;27.70;41.33;99061.06;5016610;28;20104;-63
2022/07/25 07:45:21;;;;;;;4.75;4.25;;;;;;;27.88;41.45;99066.78;5017058;28;20386;-62
2022/07/25 07:47:50;;;;;;;5.90;3.97;;;;;;;28.00;41.37;99067.75;5016460;28;20050;-61
2022/07/25 07:50:23;;;;;;;4.47;4.07;;;;;;;28.13;41.00;99053.28;4999029;28;20049;-62
2022/07/25 07:52:51;;;;;;;6.93;4.35;;;;;;;28.28;40.92;99057.53;5016894;28;20057;-62
2022/07/25 07:58:03;;;;;;;4.20;3.80;;;;;;;28.56;40.31;99064.38;5016423;28;20112;-66
2022/07/25 08:00:30;;;;;;;4.53;4.03;;;;;;;28.65;40.16;99048.66;4998962;28;20054;-62
2022/07/25 08:02:58;;;;;;;5.88;4.70;;;;;;;28.75;39.71;99057.09;5016849;28;20053;-62
2022/07/25 08:05:30;;;;;;;4.85;4.35;;;;;;;28.83;39.46;99062.22;5013226;28;20225;-62
2022/07/25 08:07:57;;;;;;;4.72;4.00;;;;;;;28.92;39.73;99053.84;4996164;28;20494;-62
2022/07/25 08:10:29;;;;;;;4.63;4.18;;;;;;;28.99;39.42;99051.84;5005363;28;20103;-64
2022/07/25 08:12:57;;;;;;;3.70;3.40;;;;;;;29.07;39.17;99042.59;4995690;28;20050;-61
2022/07/25 08:15:24;;;;;;;10.75;4.35;;;;;;;29.15;39.46;99044.19;4994229;28;20468;-63
2022/07/25 08:17:51;;;;;;;5.63;3.95;;;;;;;29.22;39.26;99045.75;5013028;28;20053;-62
2022/07/25 08:20:21;;;;;;;8.50;4.28;;;;;;;29.30;39.27;99041.06;4995148;28;20100;-65
2022/07/25 08:23:04;;;;;;;4.65;3.80;;;;;;;29.39;39.17;99034.28;5013317;28;20053;-62
2022/07/25 08:25:30;;;;;;;4.47;3.63;;;;;;;29.45;38.71;99033.34;5013231;28;20050;-63
2022/07/25 08:27:58;;;;;;;5.03;3.80;;;;;;;29.51;38.62;99032.47;5013286;28;20104;-63
2022/07/25 08:30:24;;;;;;;6.18;4.28;;;;;;;29.55;39.08;99029.25;5012790;28;20050;-64
2022/07/25 08:32:56;;;;;;;3.78;3.40;;;;;;;29.58;38.83;99031.53;5013051;28;20108;-62
2022/07/25 08:35:24;;;;;;;6.68;3.53;;;;;;;29.64;38.79;99031.44;5012856;28;20062;-62
2022/07/25 08:37:51;;;;;;;5.95;4.30;;;;;;;29.70;38.83;99032.38;4995489;28;20104;-62
2022/07/25 08:40:20;;;;;;;4.43;4.03;;;;;;;29.73;38.60;99026.50;4995266;28;20050;-62
2022/07/25 08:42:48;;;;;;;4.13;3.80;;;;;;;29.80;38.82;99031.84;4995527;28;20494;-63
2022/07/25 08:45:16;;;;;;;7.00;4.10;;;;;;;29.85;38.69;99033.81;5012783;28;20092;-62
2022/07/25 08:47:44;;;;;;;4.82;3.97;;;;;;;29.89;38.08;99032.31;4995122;28;20046;-62
2022/07/25 08:50:14;;;;;;;4.45;3.92;;;;;;;29.91;38.51;99024.78;5012154;28;20081;-62
2022/07/25 08:52:42;;;;;;;4.82;4.00;;;;;;;29.96;37.86;99027.59;5012338;28;20053;-62
2022/07/25 08:55:15;;;;;;;4.78;3.45;;;;;;;29.99;37.88;99032.56;4995229;28;20065;-63
2022/07/25 08:57:42;;;;;;;4.75;3.42;;;;;;;30.03;38.41;99030.22;4995077;28;20058;-62
2022/07/25 09:00:14;;;;;;;5.70;3.90;;;;;;;30.03;38.23;99031.03;5012229;28;20050;-63
2022/07/25 09:02:41;;;;;;;4.70;4.30;;;;;;;30.06;37.61;99032.47;4994920;28;20054;-63
2022/07/25 09:05:08;;;;;;;5.57;4.10;;;;;;;30.07;37.23;99038.69;5012346;28;20457;-62
2022/07/25 09:07:40;;;;;;;5.18;4.25;;;;;;;30.02;37.38;99040.22;5012328;28;20053;-64
2022/07/25 09:10:15;;;;;;;4.63;3.90;;;;;;;30.00;37.46;99036.09;4994489;28;20453;-62
2022/07/25 09:12:52;;;;;;;4.43;3.92;;;;;;;29.95;36.83;99034.09;4993530;28;20053;-64
2022/07/25 09:15:29;;;;;;;4.22;3.80;;;;;;;29.91;37.90;99038.34;5011758;28;20045;-64
2022/07/25 09:17:59;;;;;;;4.43;3.70;;;;;;;29.90;38.08;99029.34;4994530;28;20089;-63
2022/07/25 09:20:48;;;;;;;4.57;4.00;;;;;;;29.86;38.08;99030.06;5012133;28;20069;-63
2022/07/25 09:23:31;;;;;;;4.35;3.95;;;;;;;29.86;38.28;99032.78;4994587;28;20116;-63
2022/07/25 09:26:05;;;;;;;4.32;3.60;;;;;;;29.91;38.32;99024.78;5011977;28;20064;-63
2022/07/25 09:28:45;;;;;;;6.30;3.83;;;;;;;29.95;38.59;99027.84;5011470;28;20065;-63
2022/07/25 09:31:12;;;;;;;4.82;4.35;;;;;;;30.03;38.43;99032.91;5012019;28;20694;-63
2022/07/25 09:33:46;;;;;;;4.88;3.80;;;;;;;30.07;38.10;99023.25;5011657;28;20482;-62
2022/07/25 09:36:13;;;;;;;4.95;3.80;;;;;;;30.19;38.14;99020.56;5011763;28;20065;-62
2022/07/25 09:38:54;;;;;;;5.55;4.50;;;;;;;30.27;37.85;99016.69;4994111;28;20050;-63
2022/07/25 09:41:21;;;;;;;5.90;4.00;;;;;;;30.42;38.05;99013.47;5011936;28;20485;-62
2022/07/25 09:43:47;;;;;;;4.72;3.97;;;;;;;30.54;37.99;99008.88;5011826;28;20057;-63
2022/07/25 09:46:14;;;;;;;5.68;3.88;;;;;;;30.69;37.93;99007.56;5011409;28;20053;-62
2022/07/25 09:48:43;;;;;;;4.80;4.28;;;;;;;30.86;38.02;99026.69;5011331;28;20060;-62
2022/07/25 09:51:11;;;;;;;4.47;4.07;;;;;;;31.01;37.24;99009.84;5011179;28;20390;-62
2022/07/25 09:53:38;;;;;;;4.15;3.75;;;;;;;31.17;36.74;99012.88;5011742;28;20053;-63
2022/07/25 09:56:07;;;;;;;4.65;4.10;;;;;;;31.24;37.03;98997.25;5011319;28;20100;-63
2022/07/25 09:58:33;;;;;;;4.72;3.75;;;;;;;31.34;37.03;99004.78;4993858;28;20054;-63
2022/07/25 10:01:03;;;;;;;4.53;4.13;;;;;;;31.42;36.59;99009.00;5011163;28;20053;-63
2022/07/25 10:03:50;;;;;;;5.20;3.72;;;;;;;31.50;36.86;99008.63;5011694;28;20140;-64
2022/07/25 10:06:29;;;;;;;4.25;3.85;;;;;;;31.67;36.64;99003.22;5010397;28;20057;-63
2022/07/25 10:08:56;;;;;;;6.25;3.85;;;;;;;31.86;36.09;99002.97;4985573;28;20107;-64
2022/07/25 10:11:25;;;;;;;4.28;3.63;;;;;;;32.00;36.55;99005.38;5010933;28;20061;-64
2022/07/25 10:13:53;;;;;;;5.53;3.88;;;;;;;32.13;36.58;99001.50;4993384;28;20382;-63
2022/07/25 10:16:22;;;;;;;4.68;4.22;;;;;;;32.24;35.88;99008.75;4993527;28;20141;-64
2022/07/25 10:18:55;;;;;;;4.60;4.00;;;;;;;32.30;34.80;99002.31;4993245;28;20107;-63
2022/07/25 10:21:22;;;;;;;;;;;;;;;32.35;36.35;99004.25;5010956;28;20461;-62
2022/07/25 10:24:02;;;;;;;4.50;3.90;;;;;;;32.47;35.47;99006.91;4993930;28;19944;-63
2022/07/25 10:26:29;;;;;;;4.80;3.95;;;;;;;32.56;35.71;99005.41;4993004;28;20084;-63
2022/07/25 10:28:57;;;;;;;6.65;4.00;;;;;;;32.63;35.62;99002.50;4992285;28;20405;-62
2022/07/25 10:31:40;;;;;;;8.10;4.38;;;;;;;32.71;35.46;98995.78;4992936;28;20046;-62
2022/07/25 10:34:14;;;;;;;4.18;3.78;;;;;;;32.87;34.84;98999.50;4993952;28;20058;-63
2022/07/25 10:36:48;;;;;;;5.15;3.95;;;;;;;32.93;34.52;98994.94;5010516;28;20049;-63
2022/07/25 10:39:17;;;;;;;3.95;3.55;;;;;;;32.98;34.56;99000.47;5010766;28;20072;-62
2022/07/25 10:41:50;;;;;;;4.63;3.83;;;;;;;33.00;34.55;99006.53;5010416;28;20049;-63
2022/07/25 10:44:17;;;;;;;4.78;3.58;;;;;;;33.09;35.78;99001.44;5011333;28;20151;-63
2022/07/25 10:46:43;;;;;;;4.28;3.90;;;;;;;33.17;35.01;99000.97;5010633;28;20046;-63
2022/07/25 10:49:24;;;;;;;4.35;3.85;;;;;;;33.22;34.52;99001.00;5010504;28;20046;-62
2022/07/25 10:51:59;;;;;;;6.47;4.03;;;;;;;33.35;34.50;99013.44;5010470;28;20501;-63
2022/07/25 10:54:33;;;;;;;7.18;4.07;;;;;;;33.41;34.07;99006.94;4993051;28;20481;-62
2022/07/25 10:57:00;;;;;;;8.75;4.30;;;;;;;33.51;34.19;99019.03;5010943;28;20054;-63
2022/07/25 10:59:34;;;;;;;4.03;3.63;;;;;;;33.52;34.13;99013.31;5009971;28;20054;-62
2022/07/25 11:02:04;;;;;;;4.55;3.95;;;;;;;33.54;34.25;99013.06;4992986;28;20064;-62
2022/07/25 11:04:31;;;;;;;5.75;4.15;;;;;;;33.56;34.34;99021.81;4993124;28;20143;-62
2022/07/25 11:07:10;;;;;;;5.15;4.13;;;;;;;33.56;34.24;99010.91;4993186;28;20045;-62
2022/07/25 11:09:38;;;;;;;7.70;4.38;;;;;;;33.59;33.88;99018.59;4992359;28;20054;-62
2022/07/25 11:12:05;;;;;;;5.07;4.50;;;;;;;33.58;33.85;99016.94;5010726;28;20101;-61
2022/07/25 11:14:40;;;;;;;7.57;4.15;;;;;;;33.60;34.43;99012.03;5009876;28;20457;-62
2022/07/25 11:17:10;;;;;;;5.03;4.20;;;;;;;33.71;35.42;99014.88;4993165;28;20054;-62
2022/07/25 11:19:36;;;;;;;4.70;4.00;;;;;;;33.96;35.09;99010.69;5009862;28;20072;-65
2022/07/25 11:22:03;;;;;;;4.25;3.85;;;;;;;34.27;34.41;99016.41;5010266;28;20116;-62
2022/07/25 11:24:41;;;;;;;4.20;3.72;;;;;;;34.61;34.57;99015.22;5009817;28;20045;-63
2022/07/25 11:27:12;;;;;;;9.98;4.45;;;;;;;35.01;33.77;99023.91;5010117;28;20497;-63
2022/07/25 11:29:39;;;;;;;4.38;3.70;;;;;;;35.39;33.35;99008.13;5009551;28;20050;-62
2022/07/25 11:32:10;;;;;;;4.45;3.88;;;;;;;35.72;31.99;99006.00;5010135;28;20064;-61
2022/07/25 11:34:50;;;;;;;4.30;3.67;;;;;;;36.03;31.89;99005.19;4992484;28;20060;-62
2022/07/25 11:37:18;;;;;;;5.93;3.60;;;;;;;36.28;31.69;99019.94;5010243;28;20142;-62
2022/07/25 11:39:46;;;;;;;4.70;4.15;;;;;;;36.41;30.94;99002.09;4993878;28;20060;-62
2022/07/25 11:42:16;;;;;;;8.60;4.45;;;;;;;36.44;30.90;99011.69;4996477;28;20046;-63
2022/07/25 11:44:45;;;;;;;5.28;4.10;;;;;;;36.42;30.49;99008.38;5014161;28;20464;-63
2022/07/25 11:47:28;;;;;;;4.13;3.78;;;;;;;36.36;31.07;99021.31;5013656;28;20049;-63